Time;durP1;ratioP1;P1;durP2;ratioP2;P2;SDS_P1;SDS_P2;PMS_P1;PMS_P2;Temp;Humidity;BMP_temperature;BMP_pressure;BME280_temperature;BME280_humidity;BME280_pressure;Samples;Min_cycle;Max_cycle;Signal;HPM_P1;HPM_P2
2021/07/13 00:00:43;;;;;;;8.05;6.75;;;;;;;20.37;68.01;99939.27;154017;1093;103209;-76
2021/07/13 00:03:48;;;;;;;10.40;6.33;;;;;;;20.38;68.06;99945.51;153972;1101;103553;-77
2021/07/13 00:06:53;;;;;;;6.50;5.80;;;;;;;20.37;68.14;99935.73;153984;1093;103197;-77
2021/07/13 00:09:58;;;;;;;7.40;5.60;;;;;;;20.37;68.29;99925.72;153950;1101;103356;-77
2021/07/13 00:13:03;;;;;;;5.50;5.00;;;;;;;20.40;68.54;99927.99;153999;1101;103206;-77
2021/07/13 00:16:08;;;;;;;6.83;5.30;;;;;;;20.47;68.21;99927.08;153972;1101;103209;-77
2021/07/13 00:19:13;;;;;;;5.27;4.77;;;;;;;20.53;68.52;99937.02;153947;1093;103238;-77
2021/07/13 00:22:18;;;;;;;6.57;5.33;;;;;;;20.59;68.40;99941.52;153953;1093;103218;-77
2021/07/13 00:25:25;;;;;;;7.47;6.07;;;;;;;20.65;68.41;99950.66;153966;1101;103387;-77
2021/07/13 00:28:30;;;;;;;7.20;6.03;;;;;;;20.65;68.72;99981.34;153998;1101;103138;-74
2021/07/13 00:31:35;;;;;;;7.45;6.00;;;;;;;20.69;68.54;100009.65;154096;1093;103186;-74
2021/07/13 00:34:40;;;;;;;7.95;5.50;;;;;;;20.68;68.50;100021.53;153987;1093;103195;-76
2021/07/13 00:37:46;;;;;;;9.00;5.45;;;;;;;20.75;68.54;100043.98;153967;1101;103127;-76
2021/07/13 00:40:51;;;;;;;9.07;6.07;;;;;;;20.81;68.70;100044.16;153994;1101;103365;-76
2021/07/13 00:43:56;;;;;;;7.03;5.93;;;;;;;20.82;68.76;100071.02;154010;1101;103190;-75
2021/07/13 00:47:01;;;;;;;8.73;6.30;;;;;;;20.89;68.71;100057.41;153934;1093;103187;-76
2021/07/13 00:50:09;;;;;;;8.33;7.17;;;;;;;20.85;68.43;100026.38;154009;1101;103043;-77
2021/07/13 00:53:14;;;;;;;8.37;6.93;;;;;;;20.71;68.72;99977.71;154052;1101;103107;-75
2021/07/13 00:56:19;;;;;;;7.00;5.80;;;;;;;20.66;69.06;99947.73;154004;1093;103289;-74
2021/07/13 00:59:24;;;;;;;7.75;6.25;;;;;;;20.61;68.93;99936.73;154096;1101;103550;-74
2021/07/13 01:02:29;;;;;;;7.77;6.40;;;;;;;20.56;68.96;99915.70;154028;1101;103197;-76
2021/07/13 01:05:39;;;;;;;8.20;6.10;;;;;;;20.42;69.16;99924.21;153940;1101;103209;-78
2021/07/13 01:08:53;;;;;;;6.15;5.30;;;;;;;20.44;69.43;99958.19;154040;1101;103125;-77
2021/07/13 01:12:07;;;;;;;6.50;5.80;;;;;;;20.59;69.38;99988.48;154033;1101;103375;-76
2021/07/13 01:15:13;;;;;;;6.50;5.23;;;;;;;20.66;69.06;99965.89;154027;1101;103215;-76
2021/07/13 01:18:24;;;;;;;6.70;4.90;;;;;;;20.68;69.03;99966.48;153916;1093;103571;-76
2021/07/13 01:21:46;;;;;;;7.80;5.93;;;;;;;20.68;69.16;99952.94;153957;1101;103118;-79
2021/07/13 01:25:08;;;;;;;6.33;5.33;;;;;;;20.57;69.23;99965.32;154039;1101;103158;-79
2021/07/13 01:28:17;;;;;;;6.77;5.97;;;;;;;20.55;69.39;99967.43;154020;1101;103735;-79
2021/07/13 01:31:24;;;;;;;8.13;6.27;;;;;;;20.37;69.19;99960.95;154025;1093;103150;-78
2021/07/13 01:34:32;;;;;;;7.97;6.27;;;;;;;20.16;69.66;99967.62;153969;1093;103191;-78
2021/07/13 01:37:44;;;;;;;7.47;5.80;;;;;;;20.15;69.73;99957.00;154006;1101;103184;-79
2021/07/13 01:40:53;;;;;;;5.90;4.77;;;;;;;20.23;69.82;99950.47;154002;1101;103122;-79
2021/07/13 01:44:00;;;;;;;6.30;5.30;;;;;;;20.29;69.92;99928.73;153965;1101;103311;-82
2021/07/13 01:47:07;;;;;;;7.67;5.80;;;;;;;20.35;69.69;99930.54;154136;1101;103224;-80
2021/07/13 01:50:13;;;;;;;6.53;5.93;;;;;;;20.36;69.68;99926.79;154141;1093;103121;-79
2021/07/13 01:53:19;;;;;;;6.63;5.63;;;;;;;20.30;69.67;99929.55;154030;1101;103122;-80
2021/07/13 01:56:24;;;;;;;7.93;5.97;;;;;;;20.27;69.79;99938.97;153980;1101;103127;-79
2021/07/13 01:59:30;;;;;;;6.03;5.40;;;;;;;20.32;69.64;99946.41;154057;1093;103252;-77
2021/07/13 02:02:38;;;;;;;7.27;5.63;;;;;;;20.31;69.51;99931.23;154012;1101;103141;-80
2021/07/13 02:05:46;;;;;;;6.20;5.37;;;;;;;20.28;69.85;99935.19;154022;1101;103130;-76
2021/07/13 02:08:54;;;;;;;7.27;6.07;;;;;;;20.22;69.45;99927.15;154007;1101;103196;-76
2021/07/13 02:12:01;;;;;;;6.87;6.17;;;;;;;20.09;69.66;99920.83;153971;1101;103144;-75
2021/07/13 02:15:08;;;;;;;6.70;5.63;;;;;;;20.03;70.12;99932.53;153968;1094;103233;-76
2021/07/13 02:18:14;;;;;;;8.37;5.90;;;;;;;19.97;69.87;99926.13;154033;1101;103184;-76
2021/07/13 02:21:20;;;;;;;7.23;5.17;;;;;;;19.92;70.01;99922.42;153999;1093;103219;-74
2021/07/13 02:24:25;;;;;;;6.95;5.10;;;;;;;19.87;69.99;99909.56;154082;1101;103137;-72
2021/07/13 02:27:31;;;;;;;6.60;5.83;;;;;;;19.86;70.23;99907.08;153991;1101;103563;-74
2021/07/13 02:30:41;;;;;;;7.23;5.80;;;;;;;19.81;70.39;99915.88;154051;1101;103265;-74
2021/07/13 02:33:53;;;;;;;6.50;5.53;;;;;;;19.85;70.57;99949.58;153988;1093;103214;-75
2021/07/13 02:37:02;;;;;;;8.47;5.83;;;;;;;19.84;70.37;99950.61;153956;1101;103559;-74
2021/07/13 02:40:09;;;;;;;6.80;5.40;;;;;;;19.74;70.46;99953.82;153944;1093;103126;-74
2021/07/13 02:43:15;;;;;;;8.10;6.57;;;;;;;19.70;70.53;99947.16;154001;1093;103103;-74
2021/07/13 02:46:22;;;;;;;9.20;6.10;;;;;;;19.71;70.60;99939.89;153970;1101;103262;-75
2021/07/13 02:49:31;;;;;;;8.30;6.07;;;;;;;19.64;70.88;99929.10;154015;1101;103276;-75
2021/07/13 02:52:38;;;;;;;7.70;6.27;;;;;;;19.65;70.87;99929.92;153972;1093;103489;-74
2021/07/13 02:55:45;;;;;;;6.57;5.87;;;;;;;19.61;70.96;99929.53;154150;1093;103199;-75
2021/07/13 02:58:51;;;;;;;6.47;5.80;;;;;;;19.62;70.94;99940.14;154052;1101;103259;-77
2021/07/13 03:01:57;;;;;;;7.83;5.50;;;;;;;19.67;71.04;99941.36;154080;1093;103273;-77
2021/07/13 03:05:03;;;;;;;6.10;5.50;;;;;;;19.66;70.92;99935.13;154131;1101;103150;-80
2021/07/13 03:08:09;;;;;;;7.93;5.93;;;;;;;19.74;71.22;99939.47;154003;1101;103129;-75
2021/07/13 03:11:15;;;;;;;7.30;6.47;;;;;;;19.78;71.14;99929.84;153989;1101;103110;-74
2021/07/13 03:14:22;;;;;;;8.73;7.83;;;;;;;19.72;71.27;99918.02;154144;1101;103116;-75
2021/07/13 03:17:28;;;;;;;7.83;6.03;;;;;;;19.58;71.17;99922.69;154179;1093;103196;-75
2021/07/13 03:20:34;;;;;;;7.40;5.57;;;;;;;19.53;71.58;99929.81;154097;1101;103134;-76
2021/07/13 03:23:40;;;;;;;6.40;5.70;;;;;;;19.50;71.64;99927.56;154079;1101;103195;-75
2021/07/13 03:26:47;;;;;;;7.43;6.03;;;;;;;19.51;71.73;99932.73;154114;1101;103136;-75
2021/07/13 03:29:56;;;;;;;6.63;5.97;;;;;;;19.62;71.78;99932.02;154047;1101;103140;-77
2021/07/13 03:33:02;;;;;;;7.73;5.10;;;;;;;19.70;71.72;99944.45;153997;1101;103265;-80
2021/07/13 03:36:07;;;;;;;6.80;6.10;;;;;;;19.78;71.57;99954.21;154076;1093;103104;-77
2021/07/13 03:39:15;;;;;;;7.60;6.23;;;;;;;19.82;71.64;99947.30;153941;1101;103132;-77
2021/07/13 03:42:22;;;;;;;7.27;5.50;;;;;;;19.86;71.79;99951.25;153974;1093;103225;-77
2021/07/13 03:45:29;;;;;;;6.67;5.73;;;;;;;19.92;71.72;99946.80;153982;1101;103116;-77
2021/07/13 03:48:35;;;;;;;9.73;6.20;;;;;;;19.85;71.67;99932.52;153969;1101;103521;-77
2021/07/13 03:51:42;;;;;;;6.00;5.40;;;;;;;19.81;71.77;99924.82;154076;1101;103221;-76
2021/07/13 03:54:48;;;;;;;6.33;5.30;;;;;;;19.78;71.87;99903.63;154131;1101;103135;-76
2021/07/13 03:57:54;;;;;;;6.15;5.05;;;;;;;19.78;71.85;99908.19;153931;1101;103100;-78
2021/07/13 04:00:59;;;;;;;5.67;5.07;;;;;;;19.87;71.92;99901.45;154020;1101;103220;-77
2021/07/13 04:04:05;;;;;;;5.23;4.73;;;;;;;19.89;71.53;99893.92;153993;1101;103649;-77
2021/07/13 04:07:10;;;;;;;5.70;5.10;;;;;;;19.86;71.52;99899.80;153986;1101;103505;-76
2021/07/13 04:10:17;;;;;;;7.65;5.30;;;;;;;19.87;71.72;99882.49;153989;1101;103187;-77
2021/07/13 04:13:22;;;;;;;6.67;4.80;;;;;;;19.84;71.83;99882.11;154012;1101;103195;-78
2021/07/13 04:16:27;;;;;;;5.70;5.05;;;;;;;19.85;71.86;99876.47;154007;1101;103191;-77
2021/07/13 04:19:32;;;;;;;5.60;5.00;;;;;;;19.85;72.07;99868.35;153973;1093;103355;-78
2021/07/13 04:22:37;;;;;;;5.80;5.20;;;;;;;19.85;71.78;99857.52;154064;1093;103122;-77
2021/07/13 04:25:42;;;;;;;5.60;5.00;;;;;;;19.82;71.97;99866.08;154021;1093;103588;-77
2021/07/13 04:28:47;;;;;;;6.07;4.40;;;;;;;19.94;71.76;99874.32;153928;1094;103240;-78
2021/07/13 04:31:53;;;;;;;5.63;5.00;;;;;;;20.07;71.96;99863.31;153945;1101;103224;-78
2021/07/13 04:34:58;;;;;;;5.50;5.00;;;;;;;20.13;71.44;99853.47;154015;1093;103267;-75
2021/07/13 04:38:03;;;;;;;5.50;5.00;;;;;;;20.20;71.76;99857.75;153986;1101;103218;-77
2021/07/13 04:41:08;;;;;;;6.50;5.05;;;;;;;20.31;71.75;99850.77;154051;1093;103203;-77
2021/07/13 04:44:13;;;;;;;5.73;5.20;;;;;;;20.36;71.79;99831.95;153984;1101;103137;-77
2021/07/13 04:47:18;;;;;;;6.83;5.10;;;;;;;20.45;71.82;99837.05;153999;1101;103206;-77
2021/07/13 04:50:23;;;;;;;5.53;5.03;;;;;;;20.55;71.93;99827.33;153982;1101;103246;-77
2021/07/13 04:53:28;;;;;;;5.43;4.93;;;;;;;20.65;71.72;99821.39;154015;1101;103185;-77
2021/07/13 04:56:33;;;;;;;5.77;5.00;;;;;;;20.73;71.54;99823.77;153960;1101;103103;-77
2021/07/13 04:59:38;;;;;;;6.30;5.70;;;;;;;21.00;71.54;99812.53;153940;1101;103217;-78
2021/07/13 05:02:44;;;;;;;9.60;5.93;;;;;;;21.26;71.00;99819.40;153972;1093;103106;-77
2021/07/13 05:05:49;;;;;;;6.23;5.50;;;;;;;21.44;70.87;99807.66;153999;1101;103304;-77
2021/07/13 05:08:55;;;;;;;5.50;5.00;;;;;;;21.63;71.06;99811.06;154034;1101;103487;-78
2021/07/13 05:12:00;;;;;;;5.63;5.03;;;;;;;21.88;70.68;99802.69;154048;1101;103236;-77
2021/07/13 05:15:07;;;;;;;6.83;5.63;;;;;;;22.15;70.60;99802.97;153969;1101;103220;-76
2021/07/13 05:18:14;;;;;;;5.80;5.20;;;;;;;22.45;70.20;99801.13;154029;1101;103214;-76
2021/07/13 05:21:19;;;;;;;6.60;5.40;;;;;;;22.67;70.03;99803.98;154001;1093;103164;-75
2021/07/13 05:24:25;;;;;;;5.33;4.77;;;;;;;22.88;69.47;99794.29;154054;1101;103142;-74
2021/07/13 05:27:32;;;;;;;6.07;5.40;;;;;;;23.00;69.09;99794.21;154056;1101;103189;-75
2021/07/13 05:30:37;;;;;;;6.10;5.25;;;;;;;23.09;69.33;99807.20;153944;1101;103148;-75
2021/07/13 05:33:42;;;;;;;7.33;5.03;;;;;;;23.26;69.36;99811.83;153985;1101;103237;-75
2021/07/13 05:36:47;;;;;;;4.50;4.00;;;;;;;23.41;68.69;99827.59;153968;1093;103278;-75
2021/07/13 05:39:52;;;;;;;4.97;4.57;;;;;;;23.52;68.21;99832.95;153998;1093;103129;-75
2021/07/13 05:42:58;;;;;;;6.73;4.70;;;;;;;23.64;68.04;99826.58;153983;1093;103127;-75
2021/07/13 05:46:03;;;;;;;5.73;4.80;;;;;;;23.69;68.46;99823.91;153959;1093;103121;-75
2021/07/13 05:49:07;;;;;;;5.87;4.63;;;;;;;23.77;67.92;99823.50;153981;1101;103198;-75
2021/07/13 05:52:12;;;;;;;5.65;5.00;;;;;;;23.89;67.94;99834.33;153945;1101;103277;-75
2021/07/13 05:55:17;;;;;;;5.27;4.77;;;;;;;23.94;67.90;99839.82;154010;1101;103129;-75
2021/07/13 05:58:22;;;;;;;5.17;4.40;;;;;;;23.94;67.91;99828.11;153960;1093;103120;-75
2021/07/13 06:01:27;;;;;;;4.53;4.13;;;;;;;23.93;67.54;99830.02;153962;1101;103198;-75
2021/07/13 06:04:32;;;;;;;5.40;4.40;;;;;;;23.97;67.49;99828.43;154012;1101;103122;-75
2021/07/13 06:07:43;;;;;;;4.50;4.10;;;;;;;24.01;67.84;99817.85;153979;1101;103282;-75
2021/07/13 06:10:52;;;;;;;4.57;4.03;;;;;;;24.05;67.31;99821.72;154042;1093;103191;-75
2021/07/13 06:13:57;;;;;;;4.20;3.80;;;;;;;24.06;67.37;99824.20;153951;1101;103116;-75
2021/07/13 06:17:02;;;;;;;5.57;3.80;;;;;;;24.08;67.33;99832.13;153962;1094;103129;-75
2021/07/13 06:20:09;;;;;;;4.13;3.70;;;;;;;24.11;67.47;99839.78;153964;1093;103557;-75
2021/07/13 06:23:15;;;;;;;4.27;3.87;;;;;;;24.17;67.38;99836.03;154015;1101;103266;-75
2021/07/13 06:26:20;;;;;;;4.15;3.40;;;;;;;24.21;67.23;99833.63;153993;1101;103198;-75
2021/07/13 06:29:25;;;;;;;3.70;3.40;;;;;;;24.29;67.13;99827.76;153926;1101;103771;-75
2021/07/13 06:32:30;;;;;;;3.23;2.93;;;;;;;24.37;66.49;99831.94;153952;1093;103195;-76
2021/07/13 06:35:35;;;;;;;3.80;3.30;;;;;;;24.42;66.25;99837.43;154080;1101;103192;-76
2021/07/13 06:38:40;;;;;;;3.30;3.00;;;;;;;24.43;66.21;99842.64;153960;1101;103202;-75
2021/07/13 06:41:45;;;;;;;3.10;2.80;;;;;;;24.46;66.18;99855.78;153995;1101;103210;-75
2021/07/13 06:44:50;;;;;;;3.20;2.90;;;;;;;24.46;66.54;99858.50;153941;1094;103202;-75
2021/07/13 06:47:55;;;;;;;3.10;2.80;;;;;;;24.44;65.79;99863.39;153943;1101;103115;-75
2021/07/13 06:51:00;;;;;;;3.77;2.70;;;;;;;24.44;66.17;99860.66;153994;1101;103305;-75
2021/07/13 06:54:05;;;;;;;3.00;2.70;;;;;;;24.48;65.93;99869.98;153935;1101;103259;-75
2021/07/13 06:57:10;;;;;;;3.00;2.65;;;;;;;24.52;65.85;99866.76;153983;1093;103212;-74
2021/07/13 07:00:16;;;;;;;2.70;2.50;;;;;;;24.53;65.89;99863.78;153971;1101;103193;-74
2021/07/13 07:03:21;;;;;;;3.10;2.60;;;;;;;24.54;65.26;99854.53;153966;1101;103621;-74
2021/07/13 07:06:27;;;;;;;3.10;2.80;;;;;;;24.50;65.26;99853.37;153984;1093;103242;-74
2021/07/13 07:09:32;;;;;;;2.70;2.43;;;;;;;24.37;65.46;99860.02;153939;1101;103195;-74
2021/07/13 07:12:37;;;;;;;3.23;2.50;;;;;;;24.29;65.28;99853.11;154021;1093;103122;-74
2021/07/13 07:15:42;;;;;;;2.90;2.60;;;;;;;24.27;65.29;99871.63;154007;1101;103128;-74
2021/07/13 07:18:47;;;;;;;2.63;2.43;;;;;;;24.36;65.28;99861.09;153989;1093;103112;-74
2021/07/13 07:21:52;;;;;;;3.43;3.13;;;;;;;24.45;65.10;99862.30;154011;1101;103128;-74
2021/07/13 07:24:58;;;;;;;2.73;2.53;;;;;;;24.50;64.71;99872.46;153950;1094;103246;-74
2021/07/13 07:28:05;;;;;;;4.80;2.97;;;;;;;24.61;64.74;99867.96;153965;1093;103120;-73
2021/07/13 07:31:10;;;;;;;3.03;2.83;;;;;;;24.64;64.17;99870.19;154019;1101;103191;-73
2021/07/13 07:34:15;;;;;;;4.20;2.70;;;;;;;24.66;64.14;99868.84;153940;1093;103196;-73
2021/07/13 07:37:20;;;;;;;3.30;3.00;;;;;;;24.67;64.21;99858.75;153966;1101;103147;-73
2021/07/13 07:40:27;;;;;;;2.90;2.60;;;;;;;24.75;64.34;99854.73;153969;1094;103246;-73
2021/07/13 07:43:32;;;;;;;3.10;2.80;;;;;;;24.85;64.33;99852.14;153957;1101;103128;-73
2021/07/13 07:46:41;;;;;;;3.20;2.90;;;;;;;24.93;64.15;99835.28;153943;1101;103197;-73
2021/07/13 07:49:46;;;;;;;2.90;2.70;;;;;;;24.98;64.27;99827.16;153959;1101;103136;-74
2021/07/13 07:52:52;;;;;;;3.17;2.87;;;;;;;25.12;64.00;99826.73;153995;1093;103116;-73
2021/07/13 07:55:58;;;;;;;3.07;2.73;;;;;;;25.28;63.51;99818.41;153984;1101;103202;-73
2021/07/13 07:59:04;;;;;;;3.05;2.80;;;;;;;25.41;63.63;99819.89;153965;1101;103225;-73
2021/07/13 08:02:10;;;;;;;4.03;3.43;;;;;;;25.52;63.22;99806.28;154012;1093;103144;-73
2021/07/13 08:05:16;;;;;;;3.10;2.80;;;;;;;25.59;63.23;99821.36;153937;1101;103195;-73
2021/07/13 08:08:21;;;;;;;3.10;2.77;;;;;;;25.71;63.36;99812.97;154012;1101;103116;-74
2021/07/13 08:11:26;;;;;;;3.63;3.33;;;;;;;25.80;63.22;99818.77;153962;1101;103275;-73
2021/07/13 08:14:31;;;;;;;3.27;3.07;;;;;;;25.81;62.90;99815.78;153961;1093;103141;-73
2021/07/13 08:17:36;;;;;;;3.50;3.20;;;;;;;25.78;62.74;99816.30;153919;1101;103150;-73
2021/07/13 08:20:41;;;;;;;4.03;3.30;;;;;;;25.77;62.83;99806.47;153925;1101;103213;-73
2021/07/13 08:23:46;;;;;;;3.93;3.53;;;;;;;25.78;62.62;99810.02;153981;1101;103170;-73
2021/07/13 08:26:51;;;;;;;3.60;3.30;;;;;;;25.79;62.47;99815.22;153945;1101;103176;-73
2021/07/13 08:29:56;;;;;;;4.60;4.20;;;;;;;25.79;61.29;99815.22;153991;1093;103213;-73
2021/07/13 08:33:01;;;;;;;5.27;4.77;;;;;;;25.80;61.26;99816.03;153950;1101;103131;-73
2021/07/13 08:36:06;;;;;;;5.40;4.87;;;;;;;25.77;61.19;99809.20;153937;1101;103160;-73
2021/07/13 08:39:11;;;;;;;5.30;4.63;;;;;;;25.75;60.72;99813.27;153952;1101;103221;-73
2021/07/13 08:42:17;;;;;;;4.97;4.47;;;;;;;25.73;60.96;99810.82;153949;1093;103274;-73
2021/07/13 08:45:22;;;;;;;4.70;4.20;;;;;;;25.71;60.47;99812.15;154015;1101;103128;-73
2021/07/13 08:48:28;;;;;;;5.23;4.77;;;;;;;25.74;60.18;99801.52;153957;1101;103126;-73
2021/07/13 08:51:33;;;;;;;5.27;4.80;;;;;;;25.72;60.09;99803.70;153903;1094;103168;-73
2021/07/13 08:54:38;;;;;;;5.67;4.60;;;;;;;25.78;60.25;99810.02;153984;1094;103247;-73
2021/07/13 08:57:45;;;;;;;5.30;4.80;;;;;;;25.83;60.62;99808.13;154012;1101;103283;-73
2021/07/13 09:00:50;;;;;;;5.10;4.70;;;;;;;25.86;60.58;99804.85;154014;1093;103154;-73
2021/07/13 09:04:01;;;;;;;5.27;4.77;;;;;;;25.92;60.01;99799.45;153945;1101;103192;-73
2021/07/13 09:07:09;;;;;;;6.93;5.33;;;;;;;25.92;60.66;99802.19;153933;1101;103215;-73
2021/07/13 09:10:15;;;;;;;5.30;4.80;;;;;;;25.97;60.39;99800.30;153946;1101;103185;-73
2021/07/13 09:13:26;;;;;;;5.45;4.95;;;;;;;25.99;60.00;99806.33;153990;1101;103596;-73
2021/07/13 09:16:34;;;;;;;5.33;4.80;;;;;;;26.01;60.21;99806.06;154031;1101;103141;-73
2021/07/13 09:19:57;;;;;;;5.47;4.97;;;;;;;26.01;59.85;99803.33;154050;1094;103118;-73
2021/07/13 09:23:04;;;;;;;6.10;5.60;;;;;;;26.00;59.93;99804.41;153956;1094;103130;-73
2021/07/13 09:26:09;;;;;;;6.27;5.67;;;;;;;25.99;59.84;99800.05;153980;1101;103218;-73
2021/07/13 09:32:47;;;;;;;5.93;5.37;;;;;;;25.93;59.81;99793.72;154145;1089;103098;-73
2021/07/13 09:36:08;;;;;;;6.10;5.50;;;;;;;25.94;59.60;99792.63;153977;1096;103184;-73
2021/07/13 09:39:14;;;;;;;6.70;6.00;;;;;;;26.00;59.78;99788.00;154011;1096;103226;-73
2021/07/13 09:42:26;;;;;;;7.03;5.93;;;;;;;26.03;59.73;99788.30;153976;1097;103150;-73
2021/07/13 09:45:33;;;;;;;7.23;6.53;;;;;;;26.04;59.66;99789.14;153974;1101;103288;-74
2021/07/13 09:48:38;;;;;;;6.70;6.10;;;;;;;26.02;59.82;99785.82;154016;1097;103121;-73
2021/07/13 09:51:45;;;;;;;7.53;6.83;;;;;;;26.05;59.82;99788.84;153967;1095;103097;-73
2021/07/13 09:54:50;;;;;;;7.00;6.30;;;;;;;26.10;59.90;99787.22;154003;1096;103112;-73
2021/07/13 09:58:07;;;;;;;7.13;6.43;;;;;;;26.11;59.56;99788.88;153980;1101;103464;-73
2021/07/13 10:01:13;;;;;;;7.17;6.50;;;;;;;26.11;59.78;99770.55;153949;1097;103211;-73
2021/07/13 10:04:18;;;;;;;7.23;6.57;;;;;;;26.16;59.60;99776.05;153983;1101;103235;-73
2021/07/13 10:07:24;;;;;;;7.70;7.00;;;;;;;26.20;59.68;99779.89;153937;1101;103154;-73
2021/07/13 10:10:30;;;;;;;7.35;6.75;;;;;;;26.25;59.29;99779.91;153984;1101;103123;-73
2021/07/13 10:13:35;;;;;;;7.37;6.67;;;;;;;26.28;59.38;99778.55;153969;1097;103554;-73
2021/07/13 10:16:40;;;;;;;8.27;7.07;;;;;;;26.33;59.81;99773.09;153965;1101;103488;-73
2021/07/13 10:19:51;;;;;;;7.57;6.77;;;;;;;26.45;59.57;99775.59;153996;1101;103146;-73
2021/07/13 10:22:57;;;;;;;7.10;6.50;;;;;;;26.50;59.39;99778.31;153948;1097;103118;-73
2021/07/13 10:26:02;;;;;;;7.20;6.60;;;;;;;26.55;59.38;99766.58;154015;1096;103193;-73
2021/07/13 10:29:41;;;;;;;7.50;6.70;;;;;;;26.57;59.60;99770.67;153988;1101;103147;-73
2021/07/13 10:32:46;;;;;;;7.10;6.50;;;;;;;26.63;59.38;99774.27;153943;1101;103334;-73
2021/07/13 10:35:51;;;;;;;7.90;6.87;;;;;;;26.68;59.18;99768.81;153998;1096;103496;-73
2021/07/13 10:39:33;;;;;;;7.17;6.47;;;;;;;26.74;58.95;99775.13;153957;1101;103147;-73
2021/07/13 10:43:02;;;;;;;7.77;7.13;;;;;;;26.75;59.44;99765.80;153975;1101;103209;-74
2021/07/13 10:46:11;;;;;;;8.17;7.37;;;;;;;26.86;59.08;99761.98;153940;1093;103148;-74
2021/07/13 10:49:19;;;;;;;7.13;6.53;;;;;;;26.96;58.98;99770.19;153998;1101;103287;-73
2021/07/13 10:52:51;;;;;;;7.80;7.10;;;;;;;27.03;58.61;99765.27;154009;1101;103153;-73
2021/07/13 10:56:08;;;;;;;7.47;6.77;;;;;;;27.11;58.78;99757.60;153971;1101;103126;-73
2021/07/13 10:59:24;;;;;;;8.17;7.33;;;;;;;27.13;58.18;99761.70;154069;1093;103255;-73
2021/07/13 11:02:35;;;;;;;7.67;6.97;;;;;;;27.14;58.10;99757.06;154015;1093;103160;-73
2021/07/13 11:05:44;;;;;;;8.00;7.30;;;;;;;27.15;57.97;99753.21;153958;1094;103295;-74
2021/07/13 11:08:58;;;;;;;7.95;7.25;;;;;;;27.21;58.58;99757.58;154037;1101;103148;-73
2021/07/13 11:12:19;;;;;;;7.80;7.10;;;;;;;27.23;57.80;99747.17;153961;1093;103243;-73
2021/07/13 11:15:24;;;;;;;7.50;6.90;;;;;;;27.20;57.76;99742.27;153948;1101;103176;-73
2021/07/13 11:18:30;;;;;;;7.97;7.10;;;;;;;27.25;57.73;99733.23;153977;1101;103173;-73
2021/07/13 11:21:37;;;;;;;7.63;6.90;;;;;;;27.26;57.65;99738.44;153949;1094;103259;-73
2021/07/13 11:24:42;;;;;;;7.90;6.80;;;;;;;27.42;57.37;99742.78;154024;1101;103133;-73
2021/07/13 11:27:47;;;;;;;7.57;6.83;;;;;;;27.57;57.83;99727.41;153979;1101;103192;-74
2021/07/13 11:30:54;;;;;;;7.43;6.83;;;;;;;27.72;57.77;99723.80;153926;1093;103153;-73
2021/07/13 11:34:00;;;;;;;7.03;6.43;;;;;;;27.84;57.34;99720.73;153989;1101;103269;-73
2021/07/13 11:37:07;;;;;;;7.35;6.75;;;;;;;27.87;57.19;99725.64;153985;1093;103369;-73
2021/07/13 11:40:18;;;;;;;7.10;6.50;;;;;;;27.89;57.06;99726.20;153999;1101;103259;-73
2021/07/13 11:43:29;;;;;;;6.47;5.93;;;;;;;27.86;56.65;99715.79;154042;1101;103146;-73
2021/07/13 11:46:36;;;;;;;7.10;6.50;;;;;;;27.94;56.57;99709.74;153973;1101;103389;-73
2021/07/13 11:49:42;;;;;;;7.13;6.53;;;;;;;27.90;56.65;99703.19;154038;1093;103174;-73
2021/07/13 11:52:47;;;;;;;6.83;6.23;;;;;;;27.97;56.86;99709.19;153986;1093;103249;-73
2021/07/13 11:56:00;;;;;;;7.23;6.53;;;;;;;28.08;56.33;99694.33;154009;1093;103221;-73
2021/07/13 11:59:06;;;;;;;7.03;6.33;;;;;;;28.24;56.34;99702.46;154025;1101;103194;-74
2021/07/13 12:02:11;;;;;;;6.80;6.20;;;;;;;28.33;56.14;99698.83;154034;1101;103168;-74
2021/07/13 12:05:22;;;;;;;6.73;6.03;;;;;;;28.33;56.00;99697.98;153989;1093;103240;-75
2021/07/13 12:08:26;;;;;;;;;;;;;;;28.27;55.72;99697.20;153990;1101;103136;-75
2021/07/13 12:11:32;;;;;;;7.00;6.40;;;;;;;28.19;55.63;99684.91;154000;1101;103215;-74
2021/07/13 12:14:39;;;;;;;6.70;6.10;;;;;;;28.25;55.89;99682.95;153989;1093;103131;-72
2021/07/13 12:17:44;;;;;;;6.90;6.20;;;;;;;28.29;55.03;99685.95;154031;1101;103140;-72
2021/07/13 12:20:49;;;;;;;6.53;5.93;;;;;;;28.25;55.61;99685.69;154012;1101;103246;-72
2021/07/13 12:23:56;;;;;;;6.97;6.37;;;;;;;28.26;55.91;99678.30;153930;1101;103272;-72
2021/07/13 12:27:03;;;;;;;7.10;6.40;;;;;;;28.35;56.00;99676.57;153919;1101;103551;-73
2021/07/13 12:30:14;;;;;;;7.43;6.73;;;;;;;28.36;55.52;99681.78;153978;1096;103200;-73
2021/07/13 12:33:24;;;;;;;7.23;6.53;;;;;;;28.45;55.43;99664.73;153995;1101;103240;-73
2021/07/13 12:36:32;;;;;;;7.20;6.60;;;;;;;28.54;55.18;99668.50;154094;1101;103128;-73
2021/07/13 12:39:38;;;;;;;7.73;7.03;;;;;;;28.61;55.45;99663.52;154008;1096;103480;-73
2021/07/13 12:42:46;;;;;;;7.70;6.97;;;;;;;28.73;55.71;99666.69;154030;1101;103128;-73
2021/07/13 12:45:52;;;;;;;8.67;7.90;;;;;;;28.72;54.73;99667.81;154011;1097;103094;-73
2021/07/13 12:48:57;;;;;;;7.87;7.23;;;;;;;28.70;54.88;99660.98;153948;1101;103192;-73
2021/07/13 12:52:14;;;;;;;7.47;6.77;;;;;;;28.67;54.90;99653.31;153975;1101;103225;-73
2021/07/13 12:55:26;;;;;;;7.97;7.27;;;;;;;28.63;55.04;99655.80;153987;1101;103214;-73
2021/07/13 12:58:31;;;;;;;9.03;8.03;;;;;;;28.51;55.04;99663.58;154054;1101;103128;-73
2021/07/13 13:01:36;;;;;;;8.30;7.60;;;;;;;28.40;55.00;99646.36;154021;1095;103190;-73
2021/07/13 13:04:45;;;;;;;8.23;7.53;;;;;;;28.32;55.39;99653.28;154082;1101;103215;-73
2021/07/13 13:08:09;;;;;;;8.70;7.75;;;;;;;28.40;55.58;99649.10;154012;1101;103154;-73
2021/07/13 13:11:18;;;;;;;8.60;7.80;;;;;;;28.56;55.00;99653.41;153990;1097;103387;-73
2021/07/13 13:14:33;;;;;;;8.37;7.67;;;;;;;28.71;55.06;99648.88;153998;1101;103180;-73
2021/07/13 13:17:38;;;;;;;8.70;7.90;;;;;;;28.72;54.96;99648.59;154057;1096;103179;-73
2021/07/13 13:20:44;;;;;;;8.70;7.80;;;;;;;28.66;54.97;99649.75;154010;1101;103179;-73
2021/07/13 13:23:50;;;;;;;8.93;8.13;;;;;;;28.55;54.77;99654.50;153996;1101;103233;-73
2021/07/13 13:26:55;;;;;;;9.23;7.60;;;;;;;28.43;55.17;99650.44;154027;1097;103190;-73
2021/07/13 13:30:00;;;;;;;8.07;7.40;;;;;;;28.38;55.23;99659.55;154026;1101;103132;-73
2021/07/13 13:33:05;;;;;;;8.83;8.13;;;;;;;28.39;54.54;99658.45;154015;1101;103188;-73
2021/07/13 13:36:15;;;;;;;8.83;8.03;;;;;;;28.44;54.57;99663.88;154045;1101;103141;-73
2021/07/13 13:39:21;;;;;;;9.43;8.53;;;;;;;28.42;54.63;99654.31;154038;1101;103145;-73
2021/07/13 13:42:26;;;;;;;9.07;8.17;;;;;;;28.44;54.54;99655.66;153971;1101;103197;-73
2021/07/13 13:45:31;;;;;;;9.27;8.37;;;;;;;28.51;54.97;99650.69;154023;1094;103480;-73
2021/07/13 13:48:36;;;;;;;9.10;8.30;;;;;;;28.64;54.60;99651.13;153968;1097;103179;-73
2021/07/13 13:51:41;;;;;;;9.10;8.20;;;;;;;28.63;54.76;99655.80;153955;1096;103091;-73
2021/07/13 13:54:46;;;;;;;9.30;8.43;;;;;;;28.64;54.75;99634.66;154085;1095;103274;-73
2021/07/13 13:57:51;;;;;;;8.57;7.77;;;;;;;28.63;54.49;99652.25;154045;1095;103532;-73
2021/07/13 14:00:57;;;;;;;8.73;7.93;;;;;;;28.65;54.37;99647.29;154051;1097;103145;-73
2021/07/13 14:04:02;;;;;;;9.13;8.33;;;;;;;28.66;54.18;99644.27;153932;1101;103125;-74
2021/07/13 14:07:07;;;;;;;9.23;8.37;;;;;;;28.68;54.38;99638.48;154088;1101;103136;-73
2021/07/13 14:10:13;;;;;;;9.00;8.10;;;;;;;28.70;54.24;99625.29;154008;1101;103248;-76
2021/07/13 14:13:18;;;;;;;9.60;7.87;;;;;;;28.73;53.97;99621.95;154146;1093;103265;-77
2021/07/13 14:16:24;;;;;;;9.75;8.80;;;;;;;28.75;53.86;99620.58;154147;1101;103101;-75
2021/07/13 14:19:29;;;;;;;9.17;8.37;;;;;;;28.79;54.15;99629.02;154099;1101;103115;-74
2021/07/13 14:22:34;;;;;;;8.70;7.90;;;;;;;28.69;54.25;99620.89;154308;1093;103108;-74